Share

Anacoco, LA

6:01 AM CDT on April 24, 2014 (GMT -0500)
Fort Polk (KAQV) Elev 364 ft | 31.40 °N, 93.28 °W | Change Station

Current weather conditions updated 5 minutes ago

Overcast
Overcast
66 °F
Feels Like 66 °F
N
0
Wind Variable Wind from North
Sunrise 6:35 AM
Sunset 7:48 PM
Moon Waning Crescent

Today is forecast to be nearly the same temperature as yesterday.

Pressure 29.87 in
Visibility 7.0 miles
Clouds Mostly Cloudy 700 ft
Overcast 1100 ft
Dew Point 64 °F
Humidity 93%
Rainfall 0.00 in
Snow Depth Not available.
UV 0 out of 16
Pollen 6.40 out of 12
Air Quality Not available.
Flu Activity Local Activity
METAR KAQV 241056Z AUTO 00000KT 7SM BKN007 OVC011 19/18 A2988 RMK AO2 SLP115 T01890178

More Conditions Fewer Conditions

Pressure 29.87 in
Visibility 7.0 miles
Clouds Mostly Cloudy 700 ft
Overcast 1100 ft
Dew Point 64 °F
Humidity 93%
Rainfall 0.00 in
Snow Depth Not available.
UV 0 out of 16
Pollen 6.40 out of 12
Air Quality Not available.
Flu Activity Local Activity
METAR KAQV 241056Z AUTO 00000KT 7SM BKN007 OVC011 19/18 A2988 RMK AO2 SLP115 T01890178

More Conditions Fewer Conditions

10-Day Weather Forecast

Almanac

Astronomy

Apr. 24, 2014 Rise Set
Actual Time 6:35 AM CDT 7:48 PM CDT
Civil Twilight 6:10 AM CDT 8:13 PM CDT
Nautical Twilight 5:40 AM CDT 8:43 PM CDT
Astronomical Twilight 5:09 AM CDT 9:14 PM CDT
Moon 3:27 AM CDT 3:22 PM CDT
Length of Visible Light 14h 03m
Length of Day
13h 12m
Tomorrow will be 1m 43s longer.
Waning Crescent, 27% of the Moon is Illuminated
Today
Waning Crescent
Apr 29
New
May 6
First Quarter
May 14
Full
May 21
Last Quarter

Today's Extremes

State Highs State Lows

Community

  • Stacked
    Stacked
  • clouds approaching Red Sox Nation
    clouds approaching Red Sox Nation
  • Balance
    Balance
  • Nestled In
    Nestled In
  • Stunning Sunrise
    Stunning Sunrise

WunderPhotos

Upload Photos

1,704,584 photos uploaded!

WunderBlogs® & News

Nearby

Snow Depth

Station Depth Elevation
No new snow has been reported.

Coastal Water Temperatures

Place Temperature
No Stations Reporting

Earthquake Activity

City Distance Mag. Time & Date
No recent earthquake activity has been reported nearby.
Minimum magnitude displayed is 2.5.

Nearby Weather Stations

Station Location Temp. Dew Point Humidity Wind Precip. Elev Updated Type
RAWS VERNON LA, Fort Polk, LA 65 °F 65 °F 100% NW  at  1 mph 0.00 in / hr 350 ft 4:59 AM CDT MADIS

Show More Stations Show Fewer Stations

What do you think?

We're not finished. Please let us know what you like, what you don't like, and what you are still missing.